createdAt,value
2022-10-31T00:03:52.278Z,24.84
2022-10-31T00:08:48.637Z,25.44
2022-10-31T00:13:45.094Z,25.47
2022-10-31T00:18:47.298Z,25.67
2022-10-31T00:23:46.660Z,25.17
2022-10-31T00:28:44.391Z,25.67
2022-10-31T00:33:43.014Z,24.19
2022-10-31T00:38:42.802Z,23.90
2022-10-31T00:43:45.827Z,23.69
2022-10-31T00:48:41.362Z,23.85
2022-10-31T00:53:43.736Z,23.90
2022-10-31T00:58:40.310Z,24.37
2022-10-31T01:03:42.466Z,24.44
2022-10-31T01:08:42.197Z,23.78
2022-10-31T01:13:38.783Z,24.62
2022-10-31T01:18:41.230Z,24.28
2022-10-31T01:23:37.353Z,24.54
2022-10-31T01:28:36.838Z,25.37
2022-10-31T01:33:39.297Z,24.96
2022-10-31T01:38:35.810Z,24.29
2022-10-31T01:43:38.232Z,23.32
2022-10-31T01:48:37.754Z,24.15
2022-10-31T01:53:35.029Z,24.60
2022-10-31T01:58:33.383Z,24.24
2022-10-31T02:03:32.543Z,24.61
2022-10-31T02:08:34.865Z,23.25
2022-10-31T02:13:31.259Z,23.83
2022-10-31T02:18:30.794Z,23.99
2022-10-31T02:23:33.346Z,23.79
2022-10-31T02:28:29.684Z,24.18
2022-10-31T02:33:28.786Z,25.80
2022-10-31T02:38:31.475Z,25.64
2022-10-31T02:43:27.690Z,25.82
2022-10-31T02:48:28.279Z,25.25
2022-10-31T02:53:29.683Z,24.81
2022-10-31T02:58:26.009Z,24.26
2022-10-31T03:03:26.431Z,24.32
2022-10-31T03:08:24.771Z,24.37
2022-10-31T03:13:27.082Z,24.54
2022-10-31T03:18:23.865Z,24.39
2022-10-31T03:23:26.281Z,23.55
2022-10-31T03:28:22.785Z,25.21
2022-10-31T03:33:25.645Z,24.75
2022-10-31T03:38:22.523Z,25.91
2022-10-31T03:43:24.010Z,26.16
2022-10-31T03:48:21.463Z,25.89
2022-10-31T03:53:23.062Z,25.40
2022-10-31T03:58:21.481Z,24.52
2022-10-31T04:03:19.707Z,25.38
2022-10-31T04:08:19.028Z,27.12
2022-10-31T04:13:21.480Z,26.15
2022-10-31T04:18:17.829Z,25.87
2022-10-31T04:23:20.333Z,25.81
2022-10-31T04:33:16.228Z,27.44
2022-10-31T04:38:15.489Z,26.84
2022-10-31T04:43:14.885Z,27.36
2022-10-31T04:48:17.510Z,26.02
2022-10-31T04:53:14.020Z,25.80
2022-10-31T04:58:18.661Z,25.20
2022-10-31T05:03:16.097Z,25.65
2022-10-31T05:08:15.430Z,24.75
2022-10-31T05:13:11.793Z,25.47
2022-10-31T05:18:11.352Z,25.47
2022-10-31T05:23:10.840Z,25.63
2022-10-31T05:28:10.890Z,25.51
2022-10-31T05:33:14.746Z,25.17
2022-10-31T05:38:12.575Z,26.02
2022-10-31T05:43:12.091Z,25.71
2022-10-31T05:48:08.335Z,25.89
2022-10-31T05:53:07.572Z,26.89
2022-10-31T05:58:07.068Z,27.98
2022-10-31T06:08:10.834Z,27.70
2022-10-31T06:13:04.973Z,27.95
2022-10-31T06:18:08.333Z,25.65
2022-10-31T06:23:04.003Z,25.66
2022-10-31T06:28:03.707Z,27.09
2022-10-31T06:33:10.016Z,28.29
2022-10-31T06:38:09.746Z,26.99
2022-10-31T06:43:03.388Z,27.65
2022-10-31T06:48:16.721Z,27.88
2022-10-31T06:53:01.003Z,26.48
2022-10-31T06:58:03.056Z,26.42
2022-10-31T07:03:00.924Z,25.12
2022-10-31T07:08:02.977Z,27.14
2022-10-31T07:12:59.340Z,27.26
2022-10-31T07:17:58.000Z,27.09
2022-10-31T07:22:57.550Z,28.48
2022-10-31T07:27:57.569Z,27.73
2022-10-31T07:32:56.125Z,27.04
2022-10-31T07:37:58.836Z,25.40
2022-10-31T07:43:02.865Z,26.99
2022-10-31T07:47:55.863Z,26.77
2022-10-31T07:52:59.874Z,27.79
2022-10-31T07:57:55.184Z,27.27
2022-10-31T08:02:54.695Z,26.75
2022-10-31T08:07:57.534Z,25.78
2022-10-31T08:12:53.332Z,25.88
2022-10-31T08:17:53.055Z,27.28
2022-10-31T08:22:52.598Z,27.73
2022-10-31T08:27:55.336Z,25.32
2022-10-31T08:32:51.577Z,26.97
2022-10-31T08:37:50.923Z,27.97
2022-10-31T08:42:53.321Z,27.47
2022-10-31T08:47:52.888Z,26.69
2022-10-31T08:53:04.258Z,25.54
2022-10-31T08:57:48.539Z,25.92
2022-10-31T09:02:47.939Z,26.43
2022-10-31T09:07:48.167Z,28.34
2022-10-31T09:12:49.558Z,27.58
2022-10-31T09:17:45.885Z,26.37
2022-10-31T09:22:45.596Z,26.47
2022-10-31T09:27:48.073Z,25.13
2022-10-31T09:32:44.592Z,25.93
2022-10-31T09:37:43.968Z,24.84
2022-10-31T09:42:50.489Z,26.82
2022-10-31T09:47:42.890Z,25.00
2022-10-31T09:52:42.286Z,25.09
2022-10-31T09:57:44.694Z,24.18
2022-10-31T10:02:44.168Z,23.72
2022-10-31T10:07:40.396Z,24.57
2022-10-31T10:12:39.677Z,25.07
2022-10-31T10:17:42.332Z,25.71
2022-10-31T10:22:38.656Z,25.89
2022-10-31T10:27:41.060Z,26.74
2022-10-31T10:32:37.501Z,25.16
2022-10-31T10:38:08.839Z,25.37
2022-10-31T10:42:45.972Z,25.48
2022-10-31T10:47:59.245Z,25.07
2022-10-31T10:52:44.573Z,25.97
2022-10-31T10:57:39.049Z,26.21
2022-10-31T11:02:37.301Z,25.24
2022-10-31T11:07:35.829Z,24.44
2022-10-31T11:12:33.062Z,24.69
2022-10-31T11:17:35.772Z,24.17
2022-10-31T11:22:32.362Z,25.18
2022-10-31T11:27:31.917Z,26.48
2022-10-31T11:32:34.229Z,26.28
2022-10-31T11:37:30.581Z,26.84
2022-10-31T11:42:32.870Z,26.81
2022-10-31T11:47:33.489Z,27.02
2022-10-31T11:52:32.334Z,26.37
2022-10-31T11:57:28.643Z,28.05
2022-10-31T12:02:28.035Z,28.21
2022-10-31T12:07:27.821Z,27.16
2022-10-31T12:12:31.492Z,28.30
2022-10-31T12:17:28.863Z,28.98
2022-10-31T12:22:26.340Z,27.06
2022-10-31T12:27:34.294Z,26.07
2022-10-31T12:32:25.441Z,27.28
2022-10-31T12:37:07.300Z,39.65
2022-10-31T12:42:58.101Z,42.98
2022-10-31T12:47:54.828Z,40.17
2022-10-31T12:52:54.224Z,39.31
2022-10-31T13:08:22.533Z,41.11
2022-10-31T13:13:15.848Z,40.19
2022-10-31T13:18:02.416Z,40.30
2022-10-31T13:23:23.357Z,41.55
2022-10-31T13:33:25.245Z,40.52
2022-10-31T13:43:15.275Z,42.03
2022-10-31T13:48:06.481Z,39.78
2022-10-31T13:53:06.868Z,41.81
2022-10-31T13:58:11.323Z,39.21
2022-10-31T14:08:00.986Z,42.42
2022-10-31T14:12:44.517Z,39.47
2022-10-31T14:17:43.994Z,44.38
2022-10-31T14:22:43.328Z,41.63
2022-10-31T14:27:46.062Z,40.65
2022-10-31T14:32:45.555Z,43.00
2022-10-31T14:37:41.805Z,38.81
2022-10-31T14:42:44.195Z,39.69
2022-10-31T14:47:40.893Z,40.72
2022-10-31T14:52:41.039Z,41.23
2022-10-31T14:57:39.623Z,43.27
2022-10-31T15:02:42.238Z,43.79
2022-10-31T15:07:41.920Z,46.42
2022-10-31T15:12:41.457Z,42.99
2022-10-31T15:17:43.285Z,39.28
2022-10-31T15:22:37.598Z,44.30
2022-10-31T15:27:37.449Z,42.38
2022-10-31T15:32:36.945Z,42.93
2022-10-31T15:37:36.284Z,41.39
2022-10-31T15:42:38.717Z,41.83
2022-10-31T15:47:36.845Z,43.64
2022-10-31T15:52:37.235Z,39.33
2022-10-31T15:57:34.334Z,42.53
2022-10-31T16:02:33.898Z,39.26
2022-10-31T16:07:35.750Z,36.68
2022-10-31T16:12:32.292Z,41.01
2022-10-31T16:17:32.818Z,40.42
2022-10-31T16:22:34.292Z,42.51
2022-10-31T16:27:30.858Z,40.21
2022-10-31T16:32:30.541Z,42.13
2022-10-31T16:37:29.781Z,40.29
2022-10-31T16:42:32.922Z,36.29
2022-10-31T16:47:28.772Z,37.79
2022-10-31T16:52:37.952Z,39.18
2022-10-31T16:57:31.074Z,36.98
2022-10-31T17:02:27.788Z,38.11
2022-10-31T17:07:32.989Z,37.09
2022-10-31T17:12:26.480Z,37.29
2022-10-31T17:17:25.989Z,37.48
2022-10-31T17:22:25.705Z,38.51
2022-10-31T17:27:28.361Z,37.20
2022-10-31T17:32:24.815Z,39.61
2022-10-31T17:37:24.589Z,38.97
2022-10-31T17:42:28.722Z,37.91
2022-10-31T17:47:23.082Z,38.57
2022-10-31T17:52:29.968Z,39.27
2022-10-31T17:57:22.285Z,37.23
2022-10-31T18:02:21.953Z,38.99
2022-10-31T18:07:21.918Z,38.40
2022-10-31T18:12:21.906Z,39.46
2022-10-31T18:17:26.552Z,36.61
2022-10-31T18:22:19.932Z,37.22
2022-10-31T18:27:19.390Z,38.23
2022-10-31T18:32:22.249Z,37.51
2022-10-31T18:37:18.744Z,37.86
2022-10-31T18:42:21.395Z,36.07
2022-10-31T18:47:19.488Z,35.64
2022-10-31T18:52:17.086Z,35.00
2022-10-31T18:57:20.371Z,35.88
2022-10-31T19:02:20.963Z,35.78
2022-10-31T19:07:18.928Z,35.54
2022-10-31T19:12:15.978Z,34.90
2022-10-31T19:17:16.364Z,37.52
2022-10-31T19:22:17.104Z,38.56
2022-10-31T19:27:18.873Z,38.38
2022-10-31T19:32:13.354Z,38.63
2022-10-31T19:37:16.907Z,38.06
2022-10-31T19:42:12.319Z,37.74
2022-10-31T19:47:15.381Z,37.10
2022-10-31T19:52:11.414Z,38.18
2022-10-31T19:57:10.123Z,38.54
2022-10-31T20:02:09.416Z,38.19
2022-10-31T20:07:08.840Z,38.59
2022-10-31T20:12:11.371Z,38.21
2022-10-31T20:17:07.804Z,39.48
2022-10-31T20:22:07.534Z,38.79
2022-10-31T20:27:13.992Z,39.01
2022-10-31T20:32:06.615Z,37.85
2022-10-31T20:37:06.457Z,37.67
2022-10-31T20:42:16.463Z,36.78
2022-10-31T20:47:04.961Z,37.17
2022-10-31T20:52:05.701Z,37.70
2022-10-31T20:57:07.114Z,38.07
2022-10-31T21:02:06.861Z,39.84
2022-10-31T21:07:06.898Z,39.87
2022-10-31T21:12:06.476Z,40.59
2022-10-31T21:17:02.949Z,39.77
2022-10-31T21:22:02.367Z,39.18
2022-10-31T21:27:03.978Z,39.27
2022-10-31T21:32:03.396Z,39.11
2022-10-31T21:37:04.733Z,40.24
2022-10-31T21:42:00.387Z,40.60
2022-10-31T21:46:59.962Z,39.11
2022-10-31T21:51:59.357Z,38.06
2022-10-31T21:56:58.775Z,40.08
2022-10-31T22:01:58.451Z,41.37
2022-10-31T22:07:00.970Z,38.86
2022-10-31T22:28:00.521Z,18.24
2022-10-31T22:33:43.058Z,23.59
2022-10-31T22:38:45.775Z,24.75
2022-10-31T22:43:41.951Z,26.24
2022-10-31T22:48:41.785Z,26.87
2022-10-31T22:53:44.095Z,27.32
2022-10-31T22:58:40.683Z,26.93
2022-10-31T23:03:43.200Z,27.06
2022-10-31T23:08:42.642Z,25.29
2022-10-31T23:13:38.764Z,26.17
2022-10-31T23:18:49.561Z,26.76
2022-10-31T23:23:40.378Z,26.56
2022-10-31T23:28:36.792Z,26.65
2022-10-31T23:33:36.374Z,26.79
2022-10-31T23:38:38.812Z,27.66
2022-10-31T23:43:35.026Z,27.70
2022-10-31T23:48:34.631Z,25.57
2022-10-31T23:58:33.388Z,25.33
